Time;durP1;ratioP1;P1;durP2;ratioP2;P2;SDS_P1;SDS_P2;PMS_P1;PMS_P2;Temp;Humidity;BMP_temperature;BMP_pressure;BME280_temperature;BME280_humidity;BME280_pressure;Samples;Min_cycle;Max_cycle;Signal;HPM_P1;HPM_P2
2021/01/01 00:01:40;;;;;;;70.18;32.35;;;;;;;1.64;66.11;99992.69;5068465;28;20053;-61
2021/01/01 00:04:06;;;;;;;69.85;33.35;;;;;;;1.79;66.01;100007.91;5068659;28;20048;-61
2021/01/01 00:06:39;;;;;;;69.03;32.80;;;;;;;1.73;66.10;99994.97;5068425;28;20029;-60
2021/01/01 00:09:07;;;;;;;68.57;32.80;;;;;;;1.72;66.28;100003.81;5068849;28;20033;-61
2021/01/01 00:11:33;;;;;;;57.80;26.58;;;;;;;1.84;65.93;100018.28;5072132;28;20048;-61
2021/01/01 00:13:59;;;;;;;50.58;25.10;;;;;;;1.86;66.26;100027.84;5072020;28;20040;-61
2021/01/01 00:16:24;;;;;;;48.17;25.10;;;;;;;1.76;66.25;100010.66;5070020;28;20025;-62
2021/01/01 00:18:50;;;;;;;54.72;27.02;;;;;;;1.85;66.42;100026.13;5072660;28;20029;-59
2021/01/01 00:21:16;;;;;;;51.35;26.05;;;;;;;1.86;66.50;100025.19;5072787;28;20025;-62
2021/01/01 00:23:41;;;;;;;47.65;24.20;;;;;;;1.86;66.17;100021.72;5054658;28;20085;-62
2021/01/01 00:26:14;;;;;;;56.53;25.92;;;;;;;1.90;66.30;100033.84;5072101;28;20467;-62
2021/01/01 00:28:44;;;;;;;49.78;25.33;;;;;;;1.89;66.42;100047.09;5072093;28;20701;-62
2021/01/01 00:31:16;;;;;;;53.67;25.27;;;;;;;1.77;66.34;100001.81;5072767;28;20043;-61
2021/01/01 00:33:42;;;;;;;52.95;25.20;;;;;;;1.39;66.39;99949.69;5072315;28;20473;-62
2021/01/01 00:36:09;;;;;;;50.72;25.77;;;;;;;1.85;66.15;100027.91;5071856;28;20115;-61
2021/01/01 00:38:35;;;;;;;52.60;25.13;;;;;;;1.68;66.34;99992.50;5071723;28;20032;-60
2021/01/01 00:41:01;;;;;;;53.33;25.52;;;;;;;1.90;66.04;100022.41;5072000;28;20040;-62
2021/01/01 00:43:27;;;;;;;51.65;25.42;;;;;;;1.89;66.16;100018.94;5071133;28;20074;-61
2021/01/01 00:45:52;;;;;;;57.30;26.42;;;;;;;1.91;66.60;100026.78;5071695;28;20352;-59
2021/01/01 00:48:18;;;;;;;54.83;25.13;;;;;;;1.97;66.38;100019.47;5072022;28;20043;-58
2021/01/01 00:50:43;;;;;;;52.92;25.90;;;;;;;1.98;65.85;100018.53;5071765;28;20593;-60
2021/01/01 00:53:09;;;;;;;52.65;24.92;;;;;;;1.76;66.23;99989.53;5071787;28;20040;-62
2021/01/01 00:55:34;;;;;;;52.40;24.83;;;;;;;1.72;66.17;99972.13;5071751;28;20059;-63
2021/01/01 00:57:59;;;;;;;48.00;22.40;;;;;;;2.06;65.52;100010.31;5071064;28;20033;-65
2021/01/01 01:00:25;;;;;;;51.45;24.30;;;;;;;1.92;66.43;100015.28;5071639;28;20135;-66
2021/01/01 01:02:51;;;;;;;54.30;24.58;;;;;;;1.92;66.02;100008.25;5071289;28;20147;-67
2021/01/01 01:05:16;;;;;;;51.88;25.45;;;;;;;1.94;65.61;99992.34;5071519;28;20054;-64
2021/01/01 01:07:41;;;;;;;55.42;26.08;;;;;;;1.93;66.21;100002.03;5053915;28;20074;-66
2021/01/01 01:10:08;;;;;;;56.08;25.17;;;;;;;2.05;65.83;100005.94;5071037;28;20064;-66
2021/01/01 01:12:33;;;;;;;57.10;26.35;;;;;;;2.08;65.96;100016.38;5052704;28;20033;-58
2021/01/01 01:14:59;;;;;;;56.60;25.42;;;;;;;1.84;65.82;99968.94;5071519;28;20090;-65
2021/01/01 01:17:24;;;;;;;55.25;23.85;;;;;;;1.57;65.78;99926.97;5071015;28;20395;-65
2021/01/01 01:19:50;;;;;;;59.88;26.42;;;;;;;2.01;65.95;99999.09;5071301;28;20052;-60
2021/01/01 01:22:15;;;;;;;57.50;25.75;;;;;;;1.44;66.04;99902.00;5070851;28;20039;-68
2021/01/01 01:24:41;;;;;;;54.60;26.50;;;;;;;1.98;65.83;99996.56;5070861;28;20075;-66
2021/01/01 01:27:06;;;;;;;56.85;26.00;;;;;;;1.83;65.97;99991.00;5071024;28;20029;-65
2021/01/01 01:29:32;;;;;;;50.05;22.98;;;;;;;2.05;65.80;100010.34;5071122;28;20127;-66
2021/01/01 01:31:57;;;;;;;50.72;23.05;;;;;;;2.03;65.48;100004.28;5071013;28;20036;-65
2021/01/01 01:34:23;;;;;;;50.97;22.92;;;;;;;2.00;65.53;100000.00;5070536;28;20055;-64
2021/01/01 01:36:49;;;;;;;50.67;22.88;;;;;;;1.97;65.95;99986.94;5053209;28;20044;-65
2021/01/01 01:39:15;;;;;;;45.50;20.90;;;;;;;1.97;65.27;99997.50;5070913;28;20052;-68
2021/01/01 01:41:40;;;;;;;51.33;23.35;;;;;;;2.01;65.97;100001.72;5070619;28;20064;-66
2021/01/01 01:44:06;;;;;;;52.08;24.08;;;;;;;2.09;65.61;99999.59;5070570;28;20067;-67
2021/01/01 01:46:44;;;;;;;53.17;24.10;;;;;;;2.05;65.47;99990.09;5052982;28;20115;-66
2021/01/01 01:49:13;;;;;;;52.72;23.95;;;;;;;1.85;65.64;99970.66;5071350;28;20036;-67
2021/01/01 01:51:49;;;;;;;44.70;20.45;;;;;;;1.65;65.29;99912.56;5070352;28;20112;-66
2021/01/01 01:54:17;;;;;;;46.38;21.17;;;;;;;2.05;65.62;99994.50;5070452;28;20033;-64
2021/01/01 01:56:43;;;;;;;47.08;21.70;;;;;;;2.04;65.34;100012.16;5052902;28;20078;-67
2021/01/01 01:59:10;;;;;;;48.00;21.42;;;;;;;1.91;65.56;99973.97;5070935;28;20040;-66
2021/01/01 02:01:35;;;;;;;49.97;23.13;;;;;;;1.98;65.32;99984.22;5069851;28;20143;-67
2021/01/01 02:04:01;;;;;;;50.95;22.65;;;;;;;2.08;65.44;99989.13;5069919;28;20127;-67
2021/01/01 02:06:26;;;;;;;45.60;21.90;;;;;;;1.96;65.71;100004.53;5070610;28;20131;-67
2021/01/01 02:08:52;;;;;;;47.78;21.25;;;;;;;1.99;65.97;99979.81;5070522;28;20515;-59
2021/01/01 02:11:18;;;;;;;46.13;21.40;;;;;;;1.99;65.80;99996.50;5070357;28;20028;-67
2021/01/01 02:13:47;;;;;;;46.20;20.65;;;;;;;1.97;66.07;99990.41;5070233;28;20154;-66
2021/01/01 02:16:14;;;;;;;45.20;20.15;;;;;;;2.01;66.11;99984.06;5070273;28;20531;-68
2021/01/01 02:18:41;;;;;;;45.03;20.33;;;;;;;1.97;65.57;99981.66;5070656;28;20042;-68
2021/01/01 02:21:08;;;;;;;52.50;21.85;;;;;;;2.05;65.91;99983.94;5070122;28;20039;-67
2021/01/01 02:23:34;;;;;;;49.35;22.45;;;;;;;1.96;65.88;99982.56;5069824;28;20036;-68
2021/01/01 02:26:00;;;;;;;43.28;18.98;;;;;;;2.01;65.49;99985.88;5069975;28;20115;-64
2021/01/01 02:28:26;;;;;;;47.15;21.60;;;;;;;2.01;65.75;99976.16;5070127;28;20148;-65
2021/01/01 02:30:51;;;;;;;40.63;19.63;;;;;;;1.99;65.76;99995.66;5069997;28;20491;-63
2021/01/01 02:33:17;;;;;;;44.33;19.08;;;;;;;1.56;65.83;99903.25;5068946;28;20028;-67
2021/01/01 02:35:42;;;;;;;46.53;20.27;;;;;;;2.06;65.15;99978.59;5069502;28;20036;-67
2021/01/01 02:38:08;;;;;;;44.50;19.48;;;;;;;2.01;66.07;99984.06;5083344;28;20036;-63
2021/01/01 02:40:34;;;;;;;44.83;19.55;;;;;;;1.99;65.67;99970.09;5062944;28;20044;-64
2021/01/01 02:42:59;;;;;;;48.17;22.02;;;;;;;2.01;65.55;99977.94;5069744;28;20123;-67
2021/01/01 02:45:25;;;;;;;46.22;20.73;;;;;;;2.06;65.80;99981.25;5069461;28;20607;-70
2021/01/01 02:47:50;;;;;;;49.53;21.00;;;;;;;2.14;65.63;99984.41;5069792;28;20039;-64
2021/01/01 02:50:17;;;;;;;50.38;22.42;;;;;;;1.93;65.39;99953.63;5069671;28;20043;-67
2021/01/01 02:52:43;;;;;;;46.17;20.98;;;;;;;2.02;65.78;99979.66;5069851;28;20066;-68
2021/01/01 02:55:10;;;;;;;40.22;19.63;;;;;;;2.00;65.70;99965.69;5069716;28;20113;-68
2021/01/01 02:57:35;;;;;;;47.75;22.95;;;;;;;2.09;65.38;99986.41;5069290;28;20399;-58
2021/01/01 03:00:01;;;;;;;46.47;22.13;;;;;;;2.07;65.82;99982.13;5069459;28;20032;-66
2021/01/01 03:02:27;;;;;;;44.15;21.08;;;;;;;2.00;66.09;99969.16;5069351;28;20110;-67
2021/01/01 03:04:52;;;;;;;48.10;22.65;;;;;;;2.06;65.91;99975.97;5068985;28;20106;-63
2021/01/01 03:07:18;;;;;;;49.15;22.20;;;;;;;2.09;66.04;99973.19;5069871;28;20121;-63
2021/01/01 03:09:43;;;;;;;54.28;23.27;;;;;;;2.19;65.67;99970.16;5069843;28;20028;-67
2021/01/01 03:12:08;;;;;;;48.85;22.42;;;;;;;1.44;65.77;99854.50;5068959;28;20119;-67
2021/01/01 03:14:34;;;;;;;47.88;22.13;;;;;;;1.97;66.29;99950.81;5069317;28;20067;-67
2021/01/01 03:16:59;;;;;;;51.22;21.60;;;;;;;2.09;66.18;99969.72;5069617;28;20543;-67
2021/01/01 03:19:25;;;;;;;47.17;22.48;;;;;;;2.14;65.67;99973.00;5069294;28;20028;-64
2021/01/01 03:21:50;;;;;;;54.38;23.40;;;;;;;2.14;66.30;99955.34;5069294;28;20079;-62
2021/01/01 03:24:16;;;;;;;52.30;22.73;;;;;;;2.18;66.02;99964.00;5069180;28;20487;-67
2021/01/01 03:26:41;;;;;;;56.90;23.92;;;;;;;2.16;66.02;99960.59;5069258;28;20131;-66
2021/01/01 03:29:06;;;;;;;44.35;19.77;;;;;;;2.18;66.19;99963.16;5069182;28;20063;-66
2021/01/01 03:31:32;;;;;;;50.00;21.98;;;;;;;1.67;65.75;99879.06;5069402;28;20048;-66
2021/01/01 03:33:58;;;;;;;54.03;23.58;;;;;;;2.03;65.96;99956.75;5069689;28;20165;-67
2021/01/01 03:36:23;;;;;;;54.25;22.52;;;;;;;1.91;66.19;99948.44;5069036;28;20396;-66
2021/01/01 03:38:52;;;;;;;50.03;22.95;;;;;;;2.13;66.41;99958.06;5069235;28;20467;-66
2021/01/01 03:41:18;;;;;;;57.70;23.80;;;;;;;2.06;66.08;99946.06;5069317;28;20040;-67
2021/01/01 03:43:43;;;;;;;52.60;24.02;;;;;;;2.07;66.29;99967.13;5068985;28;20072;-66
2021/01/01 03:46:08;;;;;;;55.67;24.15;;;;;;;1.89;66.49;99937.09;5071898;28;20030;-66
2021/01/01 03:48:34;;;;;;;57.63;23.88;;;;;;;1.99;66.76;99971.88;5072683;28;20044;-65
2021/01/01 03:51:00;;;;;;;55.63;23.42;;;;;;;2.01;67.04;99973.50;5072823;28;20036;-65
2021/01/01 03:53:25;;;;;;;51.80;23.50;;;;;;;1.50;66.41;99856.03;5072847;28;20090;-64
2021/01/01 03:55:51;;;;;;;50.63;24.30;;;;;;;2.00;66.48;99942.75;5073134;28;20036;-63
2021/01/01 03:58:17;;;;;;;52.88;24.13;;;;;;;2.13;66.76;99963.34;5072666;28;20032;-66
2021/01/01 04:00:42;;;;;;;52.95;23.13;;;;;;;2.09;67.03;99965.25;5072585;28;20041;-66
2021/01/01 04:03:07;;;;;;;50.83;22.55;;;;;;;2.16;66.81;99965.88;5072565;28;20053;-65
2021/01/01 04:05:33;;;;;;;55.60;24.38;;;;;;;2.22;66.48;99962.94;5072864;28;20051;-64
2021/01/01 04:07:58;;;;;;;51.35;22.95;;;;;;;2.23;66.81;99955.91;5072329;28;20068;-65
2021/01/01 04:10:24;;;;;;;52.42;23.85;;;;;;;2.26;66.41;99961.88;5072163;28;20035;-65
2021/01/01 04:12:49;;;;;;;55.58;24.40;;;;;;;1.95;66.07;99914.84;5073159;28;20450;-65
2021/01/01 04:15:15;;;;;;;56.85;23.80;;;;;;;2.31;66.23;99974.06;5072505;28;20381;-66
2021/01/01 04:17:40;;;;;;;53.92;23.95;;;;;;;2.27;66.49;99960.13;5071980;28;20032;-62
2021/01/01 04:20:06;;;;;;;52.78;22.58;;;;;;;2.31;66.14;99956.41;5072083;28;20032;-67
2021/01/01 04:22:32;;;;;;;56.47;24.27;;;;;;;2.21;66.56;99965.69;5072553;28;20492;-65
2021/01/01 04:24:57;;;;;;;55.08;24.45;;;;;;;2.15;66.49;99959.72;5072497;28;20040;-65
2021/01/01 04:27:23;;;;;;;54.53;24.17;;;;;;;2.15;66.32;99969.44;5071815;28;20032;-62
2021/01/01 04:29:48;;;;;;;56.90;24.13;;;;;;;2.14;66.63;99958.00;5072189;28;20047;-63
2021/01/01 04:32:14;;;;;;;55.80;24.83;;;;;;;2.19;67.06;99965.72;5072672;28;20036;-66
2021/01/01 04:34:39;;;;;;;57.97;25.58;;;;;;;1.98;67.10;99931.41;5072060;28;20136;-67
2021/01/01 04:37:05;;;;;;;59.75;25.58;;;;;;;2.19;67.13;99967.53;5071629;28;20032;-64
2021/01/01 04:39:30;;;;;;;58.28;23.33;;;;;;;2.28;66.37;99969.75;5072180;28;20028;-64
2021/01/01 04:41:56;;;;;;;53.80;23.90;;;;;;;2.29;66.69;99971.47;5071661;28;20047;-64
2021/01/01 04:44:25;;;;;;;60.80;24.17;;;;;;;2.20;66.43;99963.97;5072175;28;20036;-58
2021/01/01 04:46:52;;;;;;;52.33;23.52;;;;;;;2.23;66.88;99966.47;5071817;28;20109;-67
2021/01/01 04:49:18;;;;;;;59.22;25.02;;;;;;;2.24;66.71;99958.44;5071748;28;20025;-67
2021/01/01 04:51:44;;;;;;;57.28;24.13;;;;;;;2.27;66.88;99979.44;5072035;28;20036;-66
2021/01/01 04:54:11;;;;;;;52.80;22.80;;;;;;;2.07;66.79;99939.88;5071426;28;20040;-66
2021/01/01 04:56:49;;;;;;;51.50;22.33;;;;;;;1.86;66.61;99905.53;5070794;28;20032;-64
2021/01/01 04:59:16;;;;;;;55.42;23.38;;;;;;;2.26;66.54;99968.97;5070822;28;20037;-65
2021/01/01 05:01:43;;;;;;;48.95;22.02;;;;;;;2.18;66.95;99960.53;5070640;28;20070;-66
2021/01/01 05:04:09;;;;;;;50.65;23.10;;;;;;;2.18;66.81;99973.75;5071549;28;20106;-67
2021/01/01 05:06:38;;;;;;;45.13;20.30;;;;;;;2.21;66.89;99968.31;5053514;28;20032;-67
2021/01/01 05:09:03;;;;;;;46.78;21.08;;;;;;;2.23;66.72;99993.72;5070919;28;20049;-68
2021/01/01 05:11:29;;;;;;;50.53;22.55;;;;;;;2.19;66.71;99975.44;5071689;28;20415;-68
2021/01/01 05:14:00;;;;;;;51.80;22.63;;;;;;;2.14;67.07;99973.00;5071492;28;20040;-68
2021/01/01 05:16:26;;;;;;;48.13;21.80;;;;;;;2.03;66.93;99943.53;5070473;28;20901;-68
2021/01/01 05:18:52;;;;;;;54.13;23.63;;;;;;;2.03;66.92;99927.69;5070945;28;20086;-64
2021/01/01 05:21:26;;;;;;;53.38;23.73;;;;;;;2.05;67.12;99925.84;5071303;28;20029;-65
2021/01/01 05:23:54;;;;;;;53.92;22.88;;;;;;;2.05;67.00;99942.56;5070873;28;20052;-64
2021/01/01 05:26:24;;;;;;;53.67;24.33;;;;;;;1.68;67.12;99878.13;5071106;28;20135;-64
2021/01/01 05:28:50;;;;;;;52.17;22.98;;;;;;;2.24;67.06;99952.31;5071798;28;20134;-65
2021/01/01 05:31:22;;;;;;;58.53;25.75;;;;;;;2.26;67.10;99950.47;5070743;28;20126;-63
2021/01/01 05:34:13;;;;;;;59.50;24.52;;;;;;;2.29;67.04;99947.69;5070934;28;20093;-65
2021/01/01 05:36:45;;;;;;;58.25;23.45;;;;;;;2.23;66.91;99950.63;5058889;28;20094;-66
2021/01/01 05:39:13;;;;;;;54.10;24.23;;;;;;;2.17;67.08;99961.41;5071123;28;20036;-65
2021/01/01 05:41:42;;;;;;;57.00;25.10;;;;;;;2.17;67.44;99961.41;5070623;28;20059;-67
2021/01/01 05:44:15;;;;;;;56.25;22.92;;;;;;;2.25;66.91;99954.88;5070079;28;20086;-64
2021/01/01 05:47:04;;;;;;;58.78;25.65;;;;;;;2.27;67.20;99957.47;5070755;28;20086;-65
2021/01/01 05:49:35;;;;;;;58.70;25.55;;;;;;;2.25;66.78;99956.69;5070690;28;20036;-65
2021/01/01 05:52:09;;;;;;;57.22;24.50;;;;;;;2.22;67.01;99948.91;5070549;28;20028;-66
2021/01/01 05:54:37;;;;;;;63.13;26.40;;;;;;;2.24;67.03;99953.16;5070373;28;20036;-65
2021/01/01 05:57:05;;;;;;;59.53;25.83;;;;;;;1.98;67.37;99949.03;5070551;28;20491;-64
2021/01/01 05:59:35;;;;;;;67.00;26.65;;;;;;;2.10;67.63;99966.13;5070609;28;20085;-63
2021/01/01 06:02:03;;;;;;;60.88;24.42;;;;;;;2.10;67.02;99956.41;5054924;28;20087;-62
2021/01/01 06:04:28;;;;;;;58.05;25.15;;;;;;;1.94;67.55;99929.81;5069991;28;20052;-66
2021/01/01 06:06:54;;;;;;;58.72;23.63;;;;;;;2.14;67.17;99958.00;5070544;28;20098;-55
2021/01/01 06:09:21;;;;;;;63.92;26.67;;;;;;;2.17;66.72;99954.38;5070298;28;20033;-64
2021/01/01 06:12:11;;;;;;;60.00;25.00;;;;;;;2.20;67.53;99948.09;5068983;28;20036;-64
2021/01/01 06:14:42;;;;;;;57.13;24.63;;;;;;;2.20;67.21;99945.47;5062495;28;20048;-64
2021/01/01 06:17:10;;;;;;;56.25;23.80;;;;;;;2.25;67.14;99948.75;5070425;28;20496;-64
2021/01/01 06:19:51;;;;;;;55.15;24.17;;;;;;;2.31;67.06;99948.47;5070445;28;20117;-64
2021/01/01 06:22:19;;;;;;;60.97;26.50;;;;;;;2.34;66.85;99953.63;5070075;28;20442;-63
2021/01/01 06:24:53;;;;;;;59.50;24.95;;;;;;;2.29;66.77;99966.19;5070025;28;20063;-63
2021/01/01 06:27:20;;;;;;;66.50;25.55;;;;;;;2.27;66.81;99942.47;5070410;28;20431;-64
2021/01/01 06:29:49;;;;;;;55.25;23.45;;;;;;;2.27;66.68;99947.75;5070108;28;20444;-64
2021/01/01 06:32:19;;;;;;;58.42;25.20;;;;;;;2.26;66.72;99953.13;5069671;28;20077;-65
2021/01/01 06:34:44;;;;;;;55.05;23.73;;;;;;;2.05;67.00;99916.16;5069692;28;20044;-66
2021/01/01 06:37:40;;;;;;;58.15;25.52;;;;;;;2.38;67.23;99963.13;5069858;28;20037;-64
2021/01/01 06:40:27;;;;;;;55.72;23.27;;;;;;;2.38;67.09;99944.63;5069677;28;20042;-62
2021/01/01 06:42:57;;;;;;;54.63;23.08;;;;;;;2.41;66.61;99952.44;5070015;28;20476;-60
2021/01/01 06:45:45;;;;;;;52.55;23.08;;;;;;;2.42;66.85;99954.16;5069902;28;20089;-62
2021/01/01 06:48:30;;;;;;;58.33;23.27;;;;;;;2.50;66.99;99950.31;5069517;28;20484;-64
2021/01/01 06:50:56;;;;;;;64.43;25.73;;;;;;;2.46;66.74;99940.81;5058495;28;20090;-64
2021/01/01 06:53:29;;;;;;;51.13;21.92;;;;;;;2.57;66.21;99949.09;5069845;28;20400;-64
2021/01/01 06:56:11;;;;;;;54.53;22.23;;;;;;;2.62;66.34;99965.59;5069092;28;20036;-59
2021/01/01 06:58:37;;;;;;;56.10;24.23;;;;;;;2.48;66.03;99950.34;5069690;28;20040;-66
2021/01/01 07:01:04;;;;;;;49.40;21.75;;;;;;;2.42;66.53;99970.00;5069389;28;20040;-66
2021/01/01 07:03:34;;;;;;;51.38;22.63;;;;;;;2.40;66.60;99950.69;5069628;28;20052;-64
2021/01/01 07:06:00;;;;;;;44.53;18.30;;;;;;;2.52;66.56;99949.28;5069937;28;20050;-64
2021/01/01 07:08:43;;;;;;;51.35;24.25;;;;;;;2.50;66.39;99956.44;5069560;28;20115;-62
2021/01/01 07:11:11;;;;;;;50.92;22.75;;;;;;;2.42;66.18;99956.81;5068960;28;20114;-64
2021/01/01 07:13:48;;;;;;;55.25;23.15;;;;;;;2.38;66.90;99960.47;5069061;28;20040;-64
2021/01/01 07:16:15;;;;;;;59.45;23.75;;;;;;;2.44;66.62;99956.72;5051592;28;20906;-65
2021/01/01 07:18:41;;;;;;;53.05;23.92;;;;;;;2.40;66.18;99953.34;5069257;28;20120;-67
2021/01/01 07:21:09;;;;;;;55.38;23.58;;;;;;;2.44;66.73;99944.38;5054105;28;20131;-64
2021/01/01 07:23:34;;;;;;;56.08;23.15;;;;;;;2.33;66.06;99941.34;5073389;28;20070;-63
2021/01/01 07:26:02;;;;;;;51.88;21.25;;;;;;;2.39;66.49;99946.34;5073483;28;20032;-68
2021/01/01 07:28:28;;;;;;;54.30;24.23;;;;;;;2.34;66.62;99950.13;5073303;28;20078;-65
2021/01/01 07:30:54;;;;;;;55.83;22.35;;;;;;;2.37;66.80;99947.34;5073322;28;20040;-58
2021/01/01 07:33:20;;;;;;;58.38;24.52;;;;;;;2.34;67.23;99953.63;5073373;28;20396;-63
2021/01/01 07:35:55;;;;;;;55.78;23.50;;;;;;;2.44;67.36;99954.94;5073396;28;20127;-63
2021/01/01 07:38:21;;;;;;;47.10;21.92;;;;;;;2.50;66.53;99947.66;5073405;28;20119;-57
2021/01/01 07:40:48;;;;;;;55.08;23.63;;;;;;;2.55;66.45;99946.53;5073589;28;20066;-63
2021/01/01 07:43:13;;;;;;;51.83;21.60;;;;;;;2.63;65.97;99959.38;5072807;28;20408;-60
2021/01/01 07:45:39;;;;;;;60.70;23.65;;;;;;;2.51;66.58;99949.38;5073125;28;20039;-59
2021/01/01 07:48:06;;;;;;;53.45;21.60;;;;;;;2.53;66.35;99948.38;5073005;28;20029;-58
2021/01/01 07:50:32;;;;;;;55.70;25.63;;;;;;;2.50;66.35;99963.53;5072733;28;20032;-59
2021/01/01 07:53:16;;;;;;;57.30;24.00;;;;;;;2.54;67.15;99954.53;5073192;28;20028;-59
2021/01/01 07:55:42;;;;;;;57.92;24.48;;;;;;;2.57;66.76;99957.03;5073028;28;20028;-59
2021/01/01 07:58:09;;;;;;;55.78;23.75;;;;;;;2.65;66.28;99949.63;5072881;28;20028;-60
2021/01/01 08:00:37;;;;;;;55.97;24.70;;;;;;;2.73;65.81;99947.47;5072192;28;20032;-60
2021/01/01 08:03:04;;;;;;;51.13;20.60;;;;;;;2.86;65.56;99949.53;5072621;28;20131;-57
2021/01/01 08:05:30;;;;;;;54.63;23.17;;;;;;;2.79;65.66;99956.03;5072596;28;20076;-60
2021/01/01 08:08:13;;;;;;;56.10;22.35;;;;;;;2.79;66.21;99966.63;5072641;28;20087;-58
2021/01/01 08:10:40;;;;;;;49.67;21.33;;;;;;;2.71;65.64;99951.97;5072382;28;20098;-59
2021/01/01 08:13:20;;;;;;;57.50;24.05;;;;;;;2.65;66.46;99957.56;5072973;28;20034;-60
2021/01/01 08:15:47;;;;;;;53.92;23.52;;;;;;;2.65;66.03;99956.69;5072875;28;20482;-59
2021/01/01 08:18:18;;;;;;;60.17;24.65;;;;;;;2.67;66.15;99960.97;5072248;28;20028;-57
2021/01/01 08:20:48;;;;;;;59.63;24.35;;;;;;;2.67;65.77;99975.97;5054771;28;20143;-60
2021/01/01 08:23:19;;;;;;;53.40;23.13;;;;;;;2.65;66.24;99961.97;5072721;28;20086;-56
2021/01/01 08:25:46;;;;;;;54.88;23.83;;;;;;;2.68;66.03;99954.75;5072010;28;20169;-59
2021/01/01 08:28:19;;;;;;;52.03;23.10;;;;;;;2.69;66.58;99959.13;5070972;28;20032;-59
2021/01/01 08:30:57;;;;;;;60.70;25.27;;;;;;;2.73;66.11;99960.69;5070327;28;20036;-60
2021/01/01 08:33:25;;;;;;;64.40;25.02;;;;;;;2.82;65.66;99958.53;5053005;28;20068;-60
2021/01/01 08:35:58;;;;;;;55.05;23.55;;;;;;;2.71;66.20;99944.03;5052982;28;20035;-57
2021/01/01 08:38:24;;;;;;;48.38;22.60;;;;;;;2.79;65.96;99945.47;5070642;28;20024;-58
2021/01/01 08:40:58;;;;;;;61.47;23.80;;;;;;;2.65;65.67;99923.19;5071111;28;20033;-61
2021/01/01 08:43:25;;;;;;;54.47;22.08;;;;;;;2.79;65.98;99954.28;5071082;28;20193;-61
2021/01/01 08:45:51;;;;;;;53.00;22.77;;;;;;;2.81;65.93;99938.31;5070549;28;20032;-63
2021/01/01 08:48:17;;;;;;;59.95;23.88;;;;;;;2.55;65.96;99912.16;5071019;28;20036;-57
2021/01/01 08:50:51;;;;;;;59.13;24.83;;;;;;;2.80;66.05;99949.81;5070415;28;20036;-60
2021/01/01 08:53:18;;;;;;;59.63;23.73;;;;;;;2.83;65.63;99952.31;5070704;28;20039;-62
2021/01/01 08:55:55;;;;;;;44.85;21.15;;;;;;;2.89;65.57;99953.84;5070832;28;20086;-60
2021/01/01 08:58:20;;;;;;;51.63;22.45;;;;;;;2.84;65.86;99940.81;5070646;28;20040;-61
2021/01/01 09:00:46;;;;;;;56.22;23.73;;;;;;;2.85;66.08;99934.59;5070397;28;20533;-59
2021/01/01 09:03:13;;;;;;;60.10;24.45;;;;;;;2.77;65.44;99924.38;5070793;28;20458;-61
2021/01/01 09:05:38;;;;;;;48.63;21.95;;;;;;;2.85;66.18;99943.41;5070329;28;20136;-62
2021/01/01 09:08:09;;;;;;;52.45;22.38;;;;;;;2.52;66.12;99882.38;5070463;28;20119;-62
2021/01/01 09:10:36;;;;;;;49.70;22.67;;;;;;;2.89;66.02;99952.03;5070214;28;20033;-63
2021/01/01 09:13:31;;;;;;;54.03;22.67;;;;;;;2.96;65.98;99947.31;5052225;28;20033;-62
2021/01/01 09:16:02;;;;;;;54.08;21.58;;;;;;;2.95;65.64;99938.53;5039241;28;20076;-61
2021/01/01 09:18:28;;;;;;;52.72;22.88;;;;;;;2.59;65.78;99875.88;5052048;28;20036;-60
2021/01/01 09:21:14;;;;;;;50.22;22.40;;;;;;;3.04;66.12;99958.41;5070406;28;20037;-59
2021/01/01 09:23:41;;;;;;;49.70;21.02;;;;;;;3.05;65.92;99941.59;5070023;28;20052;-62
2021/01/01 09:26:08;;;;;;;54.33;22.15;;;;;;;3.05;65.59;99949.53;5069614;28;20047;-60
2021/01/01 09:28:35;;;;;;;53.03;21.67;;;;;;;2.98;65.53;99922.50;5069318;28;20105;-59
2021/01/01 09:31:01;;;;;;;50.28;20.23;;;;;;;3.12;65.41;99955.38;5070102;28;20047;-58
2021/01/01 09:33:27;;;;;;;47.75;21.50;;;;;;;3.08;65.34;99944.09;5069380;28;20040;-56
2021/01/01 09:35:53;;;;;;;49.95;21.65;;;;;;;3.10;65.37;99949.31;5069720;28;20040;-58
2021/01/01 09:38:19;;;;;;;49.15;21.98;;;;;;;3.05;65.30;99935.44;5069769;28;20123;-58
2021/01/01 09:40:45;;;;;;;47.75;20.83;;;;;;;2.94;65.60;99918.31;5052264;28;20036;-60
2021/01/01 09:43:10;;;;;;;44.38;20.25;;;;;;;3.05;65.40;99944.25;5068128;28;20119;-60
2021/01/01 09:45:37;;;;;;;44.92;20.23;;;;;;;2.92;65.56;99899.00;5069313;28;20051;-59
2021/01/01 09:48:04;;;;;;;49.75;20.70;;;;;;;3.12;65.19;99934.22;5035232;28;20036;-59
2021/01/01 09:50:30;;;;;;;47.00;20.50;;;;;;;2.39;65.18;99813.38;5069821;28;20123;-60
2021/01/01 09:52:55;;;;;;;53.53;21.88;;;;;;;3.03;65.26;99924.09;5068900;28;20119;-58
2021/01/01 09:55:21;;;;;;;53.17;21.58;;;;;;;2.85;65.29;99922.25;5069240;28;20117;-59
2021/01/01 09:57:47;;;;;;;48.38;22.15;;;;;;;2.87;65.89;99925.66;5069479;28;20040;-59
2021/01/01 10:00:17;;;;;;;49.30;21.77;;;;;;;2.87;66.30;99927.44;5069110;28;20041;-62
2021/01/01 10:02:44;;;;;;;51.60;21.40;;;;;;;2.89;65.92;99907.06;5068895;28;20121;-59
2021/01/01 10:05:11;;;;;;;48.95;21.92;;;;;;;2.92;66.38;99919.31;5068857;28;20143;-61
2021/01/01 10:07:37;;;;;;;52.97;22.30;;;;;;;2.93;66.39;99928.94;5069145;28;20059;-61
2021/01/01 10:10:04;;;;;;;54.72;22.92;;;;;;;2.94;65.50;99920.94;5068562;28;20059;-59
2021/01/01 10:12:30;;;;;;;52.33;22.73;;;;;;;2.90;66.24;99914.09;5069653;28;20550;-61
2021/01/01 10:14:57;;;;;;;53.00;23.35;;;;;;;2.84;65.81;99906.44;5070056;28;20048;-61
2021/01/01 10:17:24;;;;;;;43.13;15.90;;;;;;;3.02;66.01;99928.53;5070055;28;20445;-61
2021/01/01 10:19:49;;;;;;;57.85;23.05;;;;;;;2.95;65.54;99917.38;5051686;28;20071;-61
2021/01/01 10:22:15;;;;;;;51.35;22.00;;;;;;;2.88;66.22;99902.72;5051827;28;20416;-62
2021/01/01 10:24:43;;;;;;;51.22;22.60;;;;;;;2.89;65.93;99912.34;5069578;28;20075;-60
2021/01/01 10:27:08;;;;;;;59.20;22.80;;;;;;;2.83;66.18;99899.44;5069498;28;20512;-62
2021/01/01 10:29:34;;;;;;;49.45;21.80;;;;;;;2.94;65.76;99894.50;5069278;28;20052;-62
2021/01/01 10:32:09;;;;;;;44.03;19.95;;;;;;;2.47;66.32;99831.53;5051722;28;20036;-62
2021/01/01 10:34:36;;;;;;;52.00;19.98;;;;;;;2.89;65.96;99912.34;5051311;28;20039;-64
2021/01/01 10:37:01;;;;;;;46.92;21.58;;;;;;;2.76;65.91;99890.09;5069840;28;20142;-61
2021/01/01 10:39:27;;;;;;;49.90;20.45;;;;;;;2.81;65.92;99886.31;5069343;28;20040;-62
2021/01/01 10:41:52;;;;;;;51.90;22.13;;;;;;;2.76;66.19;99890.09;5051881;28;20037;-63
2021/01/01 10:44:18;;;;;;;50.15;22.65;;;;;;;2.79;66.57;99893.44;5069792;28;20052;-63
2021/01/01 10:46:49;;;;;;;55.72;23.70;;;;;;;2.66;66.92;99890.53;5069473;28;20116;-64
2021/01/01 10:49:14;;;;;;;46.75;20.27;;;;;;;2.79;66.81;99885.53;5051857;28;20258;-63
2021/01/01 10:51:40;;;;;;;53.20;22.77;;;;;;;2.60;66.32;99863.53;5069528;28;20534;-63
2021/01/01 10:54:06;;;;;;;58.17;24.02;;;;;;;2.61;66.50;99876.66;5049571;28;20705;-62
2021/01/01 10:56:31;;;;;;;59.80;22.70;;;;;;;2.65;66.76;99899.38;5067527;28;20397;-61
2021/01/01 10:58:56;;;;;;;51.20;22.77;;;;;;;2.58;66.93;99864.44;5068753;28;20041;-60
2021/01/01 11:01:24;;;;;;;48.45;20.52;;;;;;;2.73;66.96;99877.84;5069548;28;20089;-61
2021/01/01 11:03:51;;;;;;;48.97;20.45;;;;;;;2.70;67.07;99897.38;5069387;28;20052;-61
2021/01/01 11:06:18;;;;;;;54.88;21.65;;;;;;;2.68;66.62;99890.44;5069260;28;20146;-63
2021/01/01 11:08:45;;;;;;;50.88;22.00;;;;;;;2.63;67.19;99879.22;5069224;28;20511;-63
2021/01/01 11:11:13;;;;;;;49.70;22.20;;;;;;;2.63;66.47;99868.66;5068912;28;20400;-63
2021/01/01 11:13:46;;;;;;;54.80;21.45;;;;;;;2.56;67.40;99873.38;5068800;28;20036;-64
2021/01/01 12:24:57;;;;;;;64.25;27.45;;;;;;;2.90;67.19;99870.91;5072286;28;20437;-63
2021/01/01 12:27:30;;;;;;;61.28;25.13;;;;;;;2.91;67.35;99872.63;5072004;28;20028;-62
2021/01/01 12:29:56;;;;;;;62.78;26.60;;;;;;;2.82;67.46;99868.63;5072273;28;20085;-60
2021/01/01 12:32:22;;;;;;;65.50;27.42;;;;;;;2.90;67.27;99870.91;5072391;28;20131;-62
2021/01/01 12:34:48;;;;;;;66.50;27.40;;;;;;;2.90;67.73;99866.50;5072095;28;20043;-64
2021/01/01 12:37:13;;;;;;;65.07;29.23;;;;;;;2.89;67.75;99859.47;5071884;28;20041;-63